sensor_id;sensor_type;location;lat;lon;timestamp;temperature;humidity
8651;DHT22;4363;52.346;14.516;2023-02-03T11:11:29;7.60;99.90
8651;DHT22;4363;52.346;14.516;2023-02-03T11:31:51;7.50;99.90
8651;DHT22;4363;52.346;14.516;2023-02-03T11:34:30;7.40;99.90
8651;DHT22;4363;52.346;14.516;2023-02-03T11:37:25;7.30;99.90
8651;DHT22;4363;52.346;14.516;2023-02-03T11:42:39;7.30;99.90
8651;DHT22;4363;52.346;14.516;2023-02-03T11:47:54;7.40;99.90
8651;DHT22;4363;52.346;14.516;2023-02-03T11:59:00;7.50;99.90
8651;DHT22;4363;52.346;14.516;2023-02-03T12:04:26;7.60;99.90
8651;DHT22;4363;52.346;14.516;2023-02-03T12:12:43;7.70;99.90
8651;DHT22;4363;52.346;14.516;2023-02-03T12:30:42;7.70;99.90
8651;DHT22;4363;52.346;14.516;2023-02-03T12:33:22;7.70;99.90
8651;DHT22;4363;52.346;14.516;2023-02-03T12:35:55;8.00;99.90
8651;DHT22;4363;52.346;14.516;2023-02-03T12:38:37;8.20;99.90
8651;DHT22;4363;52.346;14.516;2023-02-03T12:43:46;9.10;99.90
8651;DHT22;4363;52.346;14.516;2023-02-03T12:51:18;8.20;99.90
8651;DHT22;4363;52.346;14.516;2023-02-03T12:53:52;8.00;99.90
8651;DHT22;4363;52.346;14.516;2023-02-03T12:56:25;8.10;99.90
8651;DHT22;4363;52.346;14.516;2023-02-03T12:59:01;8.30;99.90
8651;DHT22;4363;52.346;14.516;2023-02-03T13:01:35;8.40;99.90
8651;DHT22;4363;52.346;14.516;2023-02-03T13:07:03;9.10;99.90
8651;DHT22;4363;52.346;14.516;2023-02-03T13:09:47;8.50;99.90
8651;DHT22;4363;52.346;14.516;2023-02-03T13:12:44;7.80;99.90
8651;DHT22;4363;52.346;14.516;2023-02-03T13:15:21;8.70;99.90
8651;DHT22;4363;52.346;14.516;2023-02-03T13:20:23;8.30;99.90
8651;DHT22;4363;52.346;14.516;2023-02-03T13:22:51;8.80;99.90
8651;DHT22;4363;52.346;14.516;2023-02-03T13:25:24;7.80;99.90
8651;DHT22;4363;52.346;14.516;2023-02-03T13:30:36;7.80;99.90
8651;DHT22;4363;52.346;14.516;2023-02-03T13:41:28;6.70;99.90
8651;DHT22;4363;52.346;14.516;2023-02-03T13:46:27;6.30;99.90
8651;DHT22;4363;52.346;14.516;2023-02-03T13:48:56;6.30;99.90
8651;DHT22;4363;52.346;14.516;2023-02-03T13:51:26;6.30;99.90
8651;DHT22;4363;52.346;14.516;2023-02-03T13:54:03;6.20;99.90
8651;DHT22;4363;52.346;14.516;2023-02-03T13:56:30;6.30;99.90
8651;DHT22;4363;52.346;14.516;2023-02-03T13:59:06;6.30;99.90
8651;DHT22;4363;52.346;14.516;2023-02-03T14:20:34;6.60;99.90
8651;DHT22;4363;52.346;14.516;2023-02-03T14:25:32;6.50;99.90
8651;DHT22;4363;52.346;14.516;2023-02-03T14:28:06;6.60;99.90
8651;DHT22;4363;52.346;14.516;2023-02-03T14:34:07;6.60;99.90
8651;DHT22;4363;52.346;14.516;2023-02-03T14:36:47;6.50;99.90
8651;DHT22;4363;52.346;14.516;2023-02-03T15:05:44;6.70;99.90
8651;DHT22;4363;52.346;14.516;2023-02-03T15:08:35;6.60;99.90
8651;DHT22;4363;52.346;14.516;2023-02-03T15:11:22;6.40;99.90
8651;DHT22;4363;52.346;14.516;2023-02-03T15:16:18;6.30;99.90
8651;DHT22;4363;52.346;14.516;2023-02-03T15:56:54;6.60;99.90
8651;DHT22;4363;52.346;14.516;2023-02-03T15:59:30;6.60;99.90
8651;DHT22;4363;52.346;14.516;2023-02-03T16:01:57;6.60;99.90
8651;DHT22;4363;52.346;14.516;2023-02-03T16:04:24;6.60;99.90
8651;DHT22;4363;52.346;14.516;2023-02-03T16:06:52;6.60;99.90
8651;DHT22;4363;52.346;14.516;2023-02-03T16:29:52;6.60;99.90
8651;DHT22;4363;52.346;14.516;2023-02-03T16:32:37;6.50;99.90
8651;DHT22;4363;52.346;14.516;2023-02-03T16:35:22;6.70;99.90
8651;DHT22;4363;52.346;14.516;2023-02-03T16:38:14;6.60;99.90
8651;DHT22;4363;52.346;14.516;2023-02-03T16:40:59;6.70;99.90
8651;DHT22;4363;52.346;14.516;2023-02-03T16:59:20;6.40;99.90
8651;DHT22;4363;52.346;14.516;2023-02-03T17:01:46;6.60;99.90
8651;DHT22;4363;52.346;14.516;2023-02-03T17:04:13;6.50;99.90
8651;DHT22;4363;52.346;14.516;2023-02-03T17:06:40;6.70;99.90
8651;DHT22;4363;52.346;14.516;2023-02-03T17:09:07;6.50;99.90
8651;DHT22;4363;52.346;14.516;2023-02-03T17:11:33;6.50;99.90
8651;DHT22;4363;52.346;14.516;2023-02-03T17:13:59;6.50;99.90
8651;DHT22;4363;52.346;14.516;2023-02-03T17:16:26;6.40;99.90
8651;DHT22;4363;52.346;14.516;2023-02-03T17:18:52;6.50;99.90
8651;DHT22;4363;52.346;14.516;2023-02-03T17:21:21;6.30;99.90
8651;DHT22;4363;52.346;14.516;2023-02-03T17:23:51;6.30;99.90
8651;DHT22;4363;52.346;14.516;2023-02-03T17:26:17;6.20;99.90
8651;DHT22;4363;52.346;14.516;2023-02-03T17:28:43;6.20;99.90
8651;DHT22;4363;52.346;14.516;2023-02-03T17:31:12;6.20;99.90
8651;DHT22;4363;52.346;14.516;2023-02-03T17:33:39;6.20;99.90
8651;DHT22;4363;52.346;14.516;2023-02-03T17:36:06;6.20;99.90
8651;DHT22;4363;52.346;14.516;2023-02-03T17:38:44;6.10;99.90
8651;DHT22;4363;52.346;14.516;2023-02-03T17:41:18;6.10;99.90
8651;DHT22;4363;52.346;14.516;2023-02-03T17:43:45;6.10;99.90
8651;DHT22;4363;52.346;14.516;2023-02-03T17:46:13;6.10;99.90
8651;DHT22;4363;52.346;14.516;2023-02-03T17:48:40;6.10;99.90
8651;DHT22;4363;52.346;14.516;2023-02-03T17:51:18;6.10;99.90
8651;DHT22;4363;52.346;14.516;2023-02-03T17:53:48;6.10;99.90
8651;DHT22;4363;52.346;14.516;2023-02-03T17:56:20;6.10;99.90
8651;DHT22;4363;52.346;14.516;2023-02-03T17:58:48;6.10;99.90
8651;DHT22;4363;52.346;14.516;2023-02-03T18:01:17;6.10;99.90
8651;DHT22;4363;52.346;14.516;2023-02-03T18:03:55;6.10;99.90
8651;DHT22;4363;52.346;14.516;2023-02-03T18:06:22;6.10;99.90
8651;DHT22;4363;52.346;14.516;2023-02-03T18:08:50;6.00;99.90
8651;DHT22;4363;52.346;14.516;2023-02-03T18:11:17;6.10;99.90
8651;DHT22;4363;52.346;14.516;2023-02-03T18:13:47;6.10;99.90
8651;DHT22;4363;52.346;14.516;2023-02-03T18:16:15;6.10;99.90
8651;DHT22;4363;52.346;14.516;2023-02-03T18:18:43;6.30;99.90
8651;DHT22;4363;52.346;14.516;2023-02-03T18:21:11;6.10;99.90
8651;DHT22;4363;52.346;14.516;2023-02-03T18:23:38;6.20;99.90
8651;DHT22;4363;52.346;14.516;2023-02-03T18:26:06;6.20;99.90
8651;DHT22;4363;52.346;14.516;2023-02-03T18:28:33;6.20;99.90
8651;DHT22;4363;52.346;14.516;2023-02-03T18:31:04;6.30;99.90
8651;DHT22;4363;52.346;14.516;2023-02-03T18:33:31;6.30;99.90
8651;DHT22;4363;52.346;14.516;2023-02-03T18:35:57;5.90;99.90
8651;DHT22;4363;52.346;14.516;2023-02-03T18:38:25;6.30;99.90
8651;DHT22;4363;52.346;14.516;2023-02-03T18:40:51;6.30;99.90
8651;DHT22;4363;52.346;14.516;2023-02-03T18:43:17;6.30;99.90
8651;DHT22;4363;52.346;14.516;2023-02-03T18:45:42;6.40;99.90
8651;DHT22;4363;52.346;14.516;2023-02-03T18:50:35;6.40;99.90
8651;DHT22;4363;52.346;14.516;2023-02-03T18:53:01;6.40;99.90
8651;DHT22;4363;52.346;14.516;2023-02-03T18:55:26;6.40;99.90
8651;DHT22;4363;52.346;14.516;2023-02-03T18:57:52;6.40;99.90
8651;DHT22;4363;52.346;14.516;2023-02-03T19:00:18;6.40;99.90
8651;DHT22;4363;52.346;14.516;2023-02-03T19:02:47;6.40;99.90
8651;DHT22;4363;52.346;14.516;2023-02-03T19:07:40;6.50;99.90
8651;DHT22;4363;52.346;14.516;2023-02-03T19:56:30;6.40;99.90
8651;DHT22;4363;52.346;14.516;2023-02-03T19:58:56;6.40;99.90
8651;DHT22;4363;52.346;14.516;2023-02-03T20:01:24;6.40;99.90
8651;DHT22;4363;52.346;14.516;2023-02-03T20:08:43;6.60;99.90
8651;DHT22;4363;52.346;14.516;2023-02-03T20:11:09;6.50;99.90
8651;DHT22;4363;52.346;14.516;2023-02-03T20:13:35;6.50;99.90
8651;DHT22;4363;52.346;14.516;2023-02-03T20:16:00;6.40;99.90
8651;DHT22;4363;52.346;14.516;2023-02-03T20:18:26;6.40;99.90
8651;DHT22;4363;52.346;14.516;2023-02-03T20:20:53;6.30;99.90
8651;DHT22;4363;52.346;14.516;2023-02-03T20:23:20;6.40;99.90
8651;DHT22;4363;52.346;14.516;2023-02-03T20:25:52;6.40;99.90
8651;DHT22;4363;52.346;14.516;2023-02-03T20:28:19;5.90;99.90
8651;DHT22;4363;52.346;14.516;2023-02-03T20:30:45;6.40;99.90
8651;DHT22;4363;52.346;14.516;2023-02-03T20:33:14;6.40;99.90
8651;DHT22;4363;52.346;14.516;2023-02-03T20:35:39;5.40;99.90
8651;DHT22;4363;52.346;14.516;2023-02-03T20:38:05;6.40;99.90
8651;DHT22;4363;52.346;14.516;2023-02-03T20:40:31;6.40;99.90
8651;DHT22;4363;52.346;14.516;2023-02-03T20:42:57;6.40;99.90
8651;DHT22;4363;52.346;14.516;2023-02-03T20:45:26;6.40;99.90
8651;DHT22;4363;52.346;14.516;2023-02-03T20:47:52;6.40;99.90
8651;DHT22;4363;52.346;14.516;2023-02-03T20:50:20;6.40;99.90
8651;DHT22;4363;52.346;14.516;2023-02-03T20:52:47;6.30;99.90
8651;DHT22;4363;52.346;14.516;2023-02-03T20:55:16;6.30;99.90
8651;DHT22;4363;52.346;14.516;2023-02-03T20:57:43;6.30;99.90
8651;DHT22;4363;52.346;14.516;2023-02-03T21:02:39;7.20;99.90
8651;DHT22;4363;52.346;14.516;2023-02-03T21:05:30;6.30;99.90
8651;DHT22;4363;52.346;14.516;2023-02-03T21:07:56;6.30;99.90
8651;DHT22;4363;52.346;14.516;2023-02-03T21:10:22;6.20;99.90
8651;DHT22;4363;52.346;14.516;2023-02-03T21:17:45;6.10;99.90
8651;DHT22;4363;52.346;14.516;2023-02-03T21:20:25;6.00;99.90
8651;DHT22;4363;52.346;14.516;2023-02-03T21:22:53;6.00;99.90
8651;DHT22;4363;52.346;14.516;2023-02-03T21:25:28;5.90;99.90
8651;DHT22;4363;52.346;14.516;2023-02-03T21:27:56;5.50;99.90
8651;DHT22;4363;52.346;14.516;2023-02-03T21:30:32;6.10;99.90
8651;DHT22;4363;52.346;14.516;2023-02-03T21:33:00;5.20;99.90
8651;DHT22;4363;52.346;14.516;2023-02-03T21:35:34;5.10;99.90
8651;DHT22;4363;52.346;14.516;2023-02-03T21:38:26;3.70;99.90
8651;DHT22;4363;52.346;14.516;2023-02-03T21:40:53;5.50;99.90
8651;DHT22;4363;52.346;14.516;2023-02-03T21:55:41;4.40;99.90
8651;DHT22;4363;52.346;14.516;2023-02-03T21:58:17;4.40;99.90
8651;DHT22;4363;52.346;14.516;2023-02-03T22:05:51;4.10;99.90
8651;DHT22;4363;52.346;14.516;2023-02-03T22:08:21;4.10;99.90
8651;DHT22;4363;52.346;14.516;2023-02-03T22:13:13;3.40;99.90
8651;DHT22;4363;52.346;14.516;2023-02-03T22:15:40;4.10;99.90
8651;DHT22;4363;52.346;14.516;2023-02-03T22:18:06;4.20;99.90
8651;DHT22;4363;52.346;14.516;2023-02-03T22:20:32;4.10;99.90
8651;DHT22;4363;52.346;14.516;2023-02-03T22:22:58;4.00;99.90
8651;DHT22;4363;52.346;14.516;2023-02-03T22:25:23;4.00;99.90
8651;DHT22;4363;52.346;14.516;2023-02-03T22:27:49;4.00;99.90
8651;DHT22;4363;52.346;14.516;2023-02-03T22:30:15;4.00;99.90
8651;DHT22;4363;52.346;14.516;2023-02-03T22:32:42;4.10;99.90
8651;DHT22;4363;52.346;14.516;2023-02-03T22:35:08;4.00;99.90
8651;DHT22;4363;52.346;14.516;2023-02-03T22:37:34;4.00;99.90
8651;DHT22;4363;52.346;14.516;2023-02-03T22:40:00;3.30;99.90
8651;DHT22;4363;52.346;14.516;2023-02-03T22:42:26;4.00;99.90
8651;DHT22;4363;52.346;14.516;2023-02-03T22:44:51;3.90;99.90
8651;DHT22;4363;52.346;14.516;2023-02-03T23:43:18;4.70;99.90
